Naaldwijk, Netherlands
Current Conditions -  °F | °C
As of 10:25 AM on Thursday 27 Nov 2014 (Local Time) from EHRD Reporting Station
Overcast Overcast  
Wind Chill: 42°   Ceiling: 900
Heat Index: 46°   Visibility: 4mi
Dew Point: 45°   Wind: 9mph
Humidity: 93%   Direction: 120°ESE
Pressure: 29.74"   Gusts: NA
Location:  51.99°N, 4.21°E
Report Text: EHRD 270925Z AUTO 12008KT 7000 OVC009 08/07 Q1007 NOSIG
Loading
Personal Weather Stations






























Interactive Weather Map New forecast layout! Learn more

10-Day Weather Forecast

Advertisements
Track Severe Weather on mobile